sensor_id;sensor_type;location;lat;lon;timestamp;temperature;humidity
25628;DHT22;40915;50.826;4.356;2024-03-08T00:02:16;6.20;99.90
25628;DHT22;40915;50.826;4.356;2024-03-08T00:04:42;6.20;99.90
25628;DHT22;40915;50.826;4.356;2024-03-08T00:07:07;6.20;99.90
25628;DHT22;40915;50.826;4.356;2024-03-08T00:09:33;6.20;99.90
25628;DHT22;40915;50.826;4.356;2024-03-08T00:11:59;6.20;99.90
25628;DHT22;40915;50.826;4.356;2024-03-08T00:14:24;6.10;99.90
25628;DHT22;40915;50.826;4.356;2024-03-08T00:16:50;6.10;99.90
25628;DHT22;40915;50.826;4.356;2024-03-08T00:19:19;6.10;99.90
25628;DHT22;40915;50.826;4.356;2024-03-08T00:21:45;6.00;99.90
25628;DHT22;40915;50.826;4.356;2024-03-08T00:24:11;6.00;99.90
25628;DHT22;40915;50.826;4.356;2024-03-08T00:26:37;5.90;99.90
25628;DHT22;40915;50.826;4.356;2024-03-08T00:29:03;5.90;99.90
25628;DHT22;40915;50.826;4.356;2024-03-08T00:31:29;5.90;99.90
25628;DHT22;40915;50.826;4.356;2024-03-08T00:33:56;5.90;99.90
25628;DHT22;40915;50.826;4.356;2024-03-08T00:36:22;5.90;99.90
25628;DHT22;40915;50.826;4.356;2024-03-08T00:38:48;5.80;99.90
25628;DHT22;40915;50.826;4.356;2024-03-08T00:41:13;5.80;99.90
25628;DHT22;40915;50.826;4.356;2024-03-08T00:43:39;5.80;99.90
25628;DHT22;40915;50.826;4.356;2024-03-08T00:46:04;5.80;99.90
25628;DHT22;40915;50.826;4.356;2024-03-08T00:48:30;5.80;99.90
25628;DHT22;40915;50.826;4.356;2024-03-08T00:50:56;5.80;99.90
25628;DHT22;40915;50.826;4.356;2024-03-08T00:53:22;5.70;99.90
25628;DHT22;40915;50.826;4.356;2024-03-08T00:55:48;5.60;99.90
25628;DHT22;40915;50.826;4.356;2024-03-08T00:58:14;5.60;99.90
25628;DHT22;40915;50.826;4.356;2024-03-08T01:00:40;5.60;99.90
25628;DHT22;40915;50.826;4.356;2024-03-08T01:03:06;5.60;99.90
25628;DHT22;40915;50.826;4.356;2024-03-08T01:05:32;5.60;99.90
25628;DHT22;40915;50.826;4.356;2024-03-08T01:07:58;5.50;99.90
25628;DHT22;40915;50.826;4.356;2024-03-08T01:10:23;5.50;99.90
25628;DHT22;40915;50.826;4.356;2024-03-08T01:12:49;5.50;99.90
25628;DHT22;40915;50.826;4.356;2024-03-08T01:15:15;5.50;99.90
25628;DHT22;40915;50.826;4.356;2024-03-08T01:17:41;5.50;99.90
25628;DHT22;40915;50.826;4.356;2024-03-08T01:20:07;5.40;99.90
25628;DHT22;40915;50.826;4.356;2024-03-08T01:22:36;5.40;99.90
25628;DHT22;40915;50.826;4.356;2024-03-08T01:25:02;5.40;99.90
25628;DHT22;40915;50.826;4.356;2024-03-08T01:27:30;5.40;99.90
25628;DHT22;40915;50.826;4.356;2024-03-08T01:29:56;5.40;99.90
25628;DHT22;40915;50.826;4.356;2024-03-08T01:32:22;5.40;99.90
25628;DHT22;40915;50.826;4.356;2024-03-08T01:34:49;5.40;99.90
25628;DHT22;40915;50.826;4.356;2024-03-08T01:37:14;5.40;99.90
25628;DHT22;40915;50.826;4.356;2024-03-08T01:39:40;5.30;99.90
25628;DHT22;40915;50.826;4.356;2024-03-08T01:42:06;5.30;99.90
25628;DHT22;40915;50.826;4.356;2024-03-08T01:44:31;5.30;99.90
25628;DHT22;40915;50.826;4.356;2024-03-08T01:46:57;5.30;99.90
25628;DHT22;40915;50.826;4.356;2024-03-08T01:49:24;5.30;99.90
25628;DHT22;40915;50.826;4.356;2024-03-08T01:51:51;5.30;99.90
25628;DHT22;40915;50.826;4.356;2024-03-08T01:54:18;5.30;99.90
25628;DHT22;40915;50.826;4.356;2024-03-08T01:56:45;5.30;99.90
25628;DHT22;40915;50.826;4.356;2024-03-08T01:59:12;5.30;99.90
25628;DHT22;40915;50.826;4.356;2024-03-08T02:01:38;5.20;99.90
25628;DHT22;40915;50.826;4.356;2024-03-08T02:04:03;5.20;99.90
25628;DHT22;40915;50.826;4.356;2024-03-08T02:06:31;5.20;99.90
25628;DHT22;40915;50.826;4.356;2024-03-08T02:08:58;5.20;99.90
25628;DHT22;40915;50.826;4.356;2024-03-08T02:11:23;5.20;99.90
25628;DHT22;40915;50.826;4.356;2024-03-08T02:13:49;5.20;99.90
25628;DHT22;40915;50.826;4.356;2024-03-08T02:16:21;5.10;99.90
25628;DHT22;40915;50.826;4.356;2024-03-08T02:18:46;5.10;99.90
25628;DHT22;40915;50.826;4.356;2024-03-08T02:21:12;5.10;99.90
25628;DHT22;40915;50.826;4.356;2024-03-08T02:23:40;5.10;99.90
25628;DHT22;40915;50.826;4.356;2024-03-08T02:26:05;5.10;99.90
25628;DHT22;40915;50.826;4.356;2024-03-08T02:28:33;5.00;99.90
25628;DHT22;40915;50.826;4.356;2024-03-08T02:30:59;5.00;99.90
25628;DHT22;40915;50.826;4.356;2024-03-08T02:33:27;4.90;99.90
25628;DHT22;40915;50.826;4.356;2024-03-08T02:35:52;4.90;99.90
25628;DHT22;40915;50.826;4.356;2024-03-08T02:38:20;4.90;99.90
25628;DHT22;40915;50.826;4.356;2024-03-08T02:40:48;4.90;99.90
25628;DHT22;40915;50.826;4.356;2024-03-08T02:43:15;4.90;99.90
25628;DHT22;40915;50.826;4.356;2024-03-08T02:45:41;4.90;99.90
25628;DHT22;40915;50.826;4.356;2024-03-08T02:48:08;4.90;99.90
25628;DHT22;40915;50.826;4.356;2024-03-08T02:50:34;4.80;99.90
25628;DHT22;40915;50.826;4.356;2024-03-08T02:53:03;4.80;99.90
25628;DHT22;40915;50.826;4.356;2024-03-08T02:55:29;4.80;99.90
25628;DHT22;40915;50.826;4.356;2024-03-08T02:57:55;4.80;99.90
25628;DHT22;40915;50.826;4.356;2024-03-08T03:00:21;4.70;99.90
25628;DHT22;40915;50.826;4.356;2024-03-08T03:02:49;4.70;99.90
25628;DHT22;40915;50.826;4.356;2024-03-08T03:05:22;4.70;99.90
25628;DHT22;40915;50.826;4.356;2024-03-08T03:07:49;4.70;99.90
25628;DHT22;40915;50.826;4.356;2024-03-08T03:10:16;4.70;99.90
25628;DHT22;40915;50.826;4.356;2024-03-08T03:12:42;4.70;99.90
25628;DHT22;40915;50.826;4.356;2024-03-08T03:15:08;4.60;99.90
25628;DHT22;40915;50.826;4.356;2024-03-08T03:17:34;4.60;99.90
25628;DHT22;40915;50.826;4.356;2024-03-08T03:19:59;4.60;99.90
25628;DHT22;40915;50.826;4.356;2024-03-08T03:22:30;4.50;99.90
25628;DHT22;40915;50.826;4.356;2024-03-08T03:24:56;4.50;99.90
25628;DHT22;40915;50.826;4.356;2024-03-08T03:27:23;4.50;99.90
25628;DHT22;40915;50.826;4.356;2024-03-08T03:29:50;4.50;99.90
25628;DHT22;40915;50.826;4.356;2024-03-08T03:32:17;4.50;99.90
25628;DHT22;40915;50.826;4.356;2024-03-08T03:34:44;4.50;99.90
25628;DHT22;40915;50.826;4.356;2024-03-08T03:37:10;4.50;99.90
25628;DHT22;40915;50.826;4.356;2024-03-08T03:39:39;4.40;99.90
25628;DHT22;40915;50.826;4.356;2024-03-08T03:42:15;4.40;99.90
25628;DHT22;40915;50.826;4.356;2024-03-08T03:44:44;4.40;99.90
25628;DHT22;40915;50.826;4.356;2024-03-08T03:47:10;4.30;99.90
25628;DHT22;40915;50.826;4.356;2024-03-08T03:49:35;4.40;99.90
25628;DHT22;40915;50.826;4.356;2024-03-08T03:52:01;4.30;99.90
25628;DHT22;40915;50.826;4.356;2024-03-08T03:54:26;4.30;99.90
25628;DHT22;40915;50.826;4.356;2024-03-08T03:56:52;4.30;99.90
25628;DHT22;40915;50.826;4.356;2024-03-08T03:59:19;4.30;99.90
25628;DHT22;40915;50.826;4.356;2024-03-08T04:01:44;4.20;99.90
25628;DHT22;40915;50.826;4.356;2024-03-08T04:04:10;4.20;99.90
25628;DHT22;40915;50.826;4.356;2024-03-08T04:06:37;4.20;99.90
25628;DHT22;40915;50.826;4.356;2024-03-08T04:09:03;4.20;99.90
25628;DHT22;40915;50.826;4.356;2024-03-08T04:11:30;4.20;99.90
25628;DHT22;40915;50.826;4.356;2024-03-08T04:13:55;4.20;99.90
25628;DHT22;40915;50.826;4.356;2024-03-08T05:07:40;4.10;99.90
25628;DHT22;40915;50.826;4.356;2024-03-08T05:10:06;4.00;99.90
25628;DHT22;40915;50.826;4.356;2024-03-08T05:12:33;4.10;99.90
25628;DHT22;40915;50.826;4.356;2024-03-08T05:14:59;4.00;99.90
25628;DHT22;40915;50.826;4.356;2024-03-08T05:17:25;4.00;99.90
25628;DHT22;40915;50.826;4.356;2024-03-08T05:19:51;4.00;99.90
25628;DHT22;40915;50.826;4.356;2024-03-08T05:22:17;4.00;99.90
25628;DHT22;40915;50.826;4.356;2024-03-08T05:24:44;4.00;99.90
25628;DHT22;40915;50.826;4.356;2024-03-08T05:27:10;3.90;99.90
25628;DHT22;40915;50.826;4.356;2024-03-08T05:29:35;3.90;99.90
25628;DHT22;40915;50.826;4.356;2024-03-08T05:32:01;3.90;99.90
25628;DHT22;40915;50.826;4.356;2024-03-08T05:34:28;3.90;99.90
25628;DHT22;40915;50.826;4.356;2024-03-08T05:36:54;3.90;99.90
25628;DHT22;40915;50.826;4.356;2024-03-08T05:39:20;3.90;99.90
25628;DHT22;40915;50.826;4.356;2024-03-08T05:41:46;3.90;99.90
25628;DHT22;40915;50.826;4.356;2024-03-08T05:44:12;3.90;99.90
25628;DHT22;40915;50.826;4.356;2024-03-08T05:46:38;3.80;99.90
25628;DHT22;40915;50.826;4.356;2024-03-08T05:49:04;3.90;99.90
25628;DHT22;40915;50.826;4.356;2024-03-08T05:51:34;3.90;99.90
25628;DHT22;40915;50.826;4.356;2024-03-08T05:54:05;3.90;99.90
25628;DHT22;40915;50.826;4.356;2024-03-08T05:56:37;3.90;99.90
25628;DHT22;40915;50.826;4.356;2024-03-08T05:59:03;3.90;99.90
25628;DHT22;40915;50.826;4.356;2024-03-08T06:01:29;3.90;99.90
25628;DHT22;40915;50.826;4.356;2024-03-08T06:03:56;3.80;99.90
25628;DHT22;40915;50.826;4.356;2024-03-08T06:06:25;3.80;99.90
25628;DHT22;40915;50.826;4.356;2024-03-08T06:08:52;3.80;99.90
25628;DHT22;40915;50.826;4.356;2024-03-08T06:11:19;3.80;99.90
25628;DHT22;40915;50.826;4.356;2024-03-08T06:13:45;3.80;99.90
25628;DHT22;40915;50.826;4.356;2024-03-08T06:16:11;3.80;99.90
25628;DHT22;40915;50.826;4.356;2024-03-08T06:18:38;3.80;99.90
25628;DHT22;40915;50.826;4.356;2024-03-08T06:21:05;3.80;99.90
25628;DHT22;40915;50.826;4.356;2024-03-08T06:23:33;3.70;99.90
25628;DHT22;40915;50.826;4.356;2024-03-08T06:25:59;3.80;99.90
25628;DHT22;40915;50.826;4.356;2024-03-08T06:28:25;3.70;99.90
25628;DHT22;40915;50.826;4.356;2024-03-08T06:30:51;3.70;99.90
25628;DHT22;40915;50.826;4.356;2024-03-08T06:33:17;3.80;99.90
25628;DHT22;40915;50.826;4.356;2024-03-08T06:35:43;3.80;99.90
25628;DHT22;40915;50.826;4.356;2024-03-08T06:38:09;3.80;99.90
25628;DHT22;40915;50.826;4.356;2024-03-08T06:40:34;3.80;99.90
25628;DHT22;40915;50.826;4.356;2024-03-08T06:43:00;3.80;99.90
25628;DHT22;40915;50.826;4.356;2024-03-08T06:45:26;3.80;99.90
25628;DHT22;40915;50.826;4.356;2024-03-08T06:47:51;3.80;99.90
25628;DHT22;40915;50.826;4.356;2024-03-08T06:50:17;3.80;99.90
25628;DHT22;40915;50.826;4.356;2024-03-08T06:52:43;3.80;99.90
25628;DHT22;40915;50.826;4.356;2024-03-08T06:55:10;3.80;99.90
25628;DHT22;40915;50.826;4.356;2024-03-08T06:57:39;3.90;99.90
25628;DHT22;40915;50.826;4.356;2024-03-08T07:00:09;4.00;99.90
25628;DHT22;40915;50.826;4.356;2024-03-08T07:02:37;3.90;99.90
25628;DHT22;40915;50.826;4.356;2024-03-08T07:05:05;3.90;99.90
25628;DHT22;40915;50.826;4.356;2024-03-08T07:07:31;4.00;99.90
25628;DHT22;40915;50.826;4.356;2024-03-08T07:09:59;4.20;99.90
25628;DHT22;40915;50.826;4.356;2024-03-08T07:12:24;4.50;99.90
25628;DHT22;40915;50.826;4.356;2024-03-08T07:14:51;4.80;99.90
25628;DHT22;40915;50.826;4.356;2024-03-08T07:17:17;5.00;99.90
25628;DHT22;40915;50.826;4.356;2024-03-08T07:19:43;5.40;99.90
25628;DHT22;40915;50.826;4.356;2024-03-08T07:22:08;5.50;99.90
25628;DHT22;40915;50.826;4.356;2024-03-08T07:24:37;5.60;99.90
25628;DHT22;40915;50.826;4.356;2024-03-08T07:27:23;5.70;99.90
25628;DHT22;40915;50.826;4.356;2024-03-08T07:29:49;5.80;99.90
25628;DHT22;40915;50.826;4.356;2024-03-08T07:32:14;5.90;99.90
25628;DHT22;40915;50.826;4.356;2024-03-08T07:34:47;5.90;99.90
25628;DHT22;40915;50.826;4.356;2024-03-08T07:37:14;5.80;99.90
25628;DHT22;40915;50.826;4.356;2024-03-08T07:39:40;5.60;99.90
25628;DHT22;40915;50.826;4.356;2024-03-08T07:42:06;5.70;99.90
25628;DHT22;40915;50.826;4.356;2024-03-08T07:44:31;5.60;99.90
25628;DHT22;40915;50.826;4.356;2024-03-08T07:46:58;5.60;99.90
25628;DHT22;40915;50.826;4.356;2024-03-08T07:49:24;5.40;99.90
25628;DHT22;40915;50.826;4.356;2024-03-08T07:51:49;5.40;99.90
25628;DHT22;40915;50.826;4.356;2024-03-08T07:54:15;5.30;99.90
25628;DHT22;40915;50.826;4.356;2024-03-08T07:56:41;5.00;99.90
25628;DHT22;40915;50.826;4.356;2024-03-08T07:59:07;4.90;99.90
25628;DHT22;40915;50.826;4.356;2024-03-08T08:01:33;4.90;99.90
25628;DHT22;40915;50.826;4.356;2024-03-08T08:04:01;4.80;99.90
25628;DHT22;40915;50.826;4.356;2024-03-08T08:06:27;4.80;99.90
25628;DHT22;40915;50.826;4.356;2024-03-08T08:08:53;4.80;99.90
25628;DHT22;40915;50.826;4.356;2024-03-08T08:11:19;4.80;99.90
25628;DHT22;40915;50.826;4.356;2024-03-08T08:13:46;4.90;99.90
25628;DHT22;40915;50.826;4.356;2024-03-08T08:16:11;4.90;99.90
25628;DHT22;40915;50.826;4.356;2024-03-08T08:18:38;4.90;99.90
25628;DHT22;40915;50.826;4.356;2024-03-08T08:21:05;5.10;99.90
25628;DHT22;40915;50.826;4.356;2024-03-08T08:23:35;5.10;99.90
25628;DHT22;40915;50.826;4.356;2024-03-08T08:26:00;5.10;99.90
25628;DHT22;40915;50.826;4.356;2024-03-08T08:28:28;5.20;99.90
25628;DHT22;40915;50.826;4.356;2024-03-08T08:30:55;5.20;99.90
25628;DHT22;40915;50.826;4.356;2024-03-08T08:33:20;5.20;99.90
25628;DHT22;40915;50.826;4.356;2024-03-08T08:35:46;5.30;99.90
25628;DHT22;40915;50.826;4.356;2024-03-08T08:38:13;5.30;99.90
25628;DHT22;40915;50.826;4.356;2024-03-08T08:40:38;5.30;99.90
25628;DHT22;40915;50.826;4.356;2024-03-08T08:43:04;5.40;99.90
25628;DHT22;40915;50.826;4.356;2024-03-08T08:45:31;5.50;99.90
25628;DHT22;40915;50.826;4.356;2024-03-08T08:47:56;5.60;99.90
25628;DHT22;40915;50.826;4.356;2024-03-08T08:50:25;5.70;99.90
25628;DHT22;40915;50.826;4.356;2024-03-08T08:52:52;5.80;99.90
25628;DHT22;40915;50.826;4.356;2024-03-08T08:55:21;5.80;99.90
25628;DHT22;40915;50.826;4.356;2024-03-08T08:57:50;5.80;99.90
25628;DHT22;40915;50.826;4.356;2024-03-08T09:00:20;5.90;99.90
25628;DHT22;40915;50.826;4.356;2024-03-08T09:02:47;6.00;99.90
25628;DHT22;40915;50.826;4.356;2024-03-08T09:05:16;6.00;99.90
25628;DHT22;40915;50.826;4.356;2024-03-08T09:07:43;6.00;99.90
25628;DHT22;40915;50.826;4.356;2024-03-08T09:10:10;6.20;99.90
25628;DHT22;40915;50.826;4.356;2024-03-08T09:12:40;6.10;99.90
25628;DHT22;40915;50.826;4.356;2024-03-08T09:15:06;6.20;99.90
25628;DHT22;40915;50.826;4.356;2024-03-08T09:17:37;6.20;99.90
25628;DHT22;40915;50.826;4.356;2024-03-08T09:20:08;6.30;99.90
25628;DHT22;40915;50.826;4.356;2024-03-08T09:22:35;6.40;99.90
25628;DHT22;40915;50.826;4.356;2024-03-08T09:25:01;6.50;99.90
25628;DHT22;40915;50.826;4.356;2024-03-08T09:27:30;6.60;99.90
25628;DHT22;40915;50.826;4.356;2024-03-08T09:29:56;6.60;99.90
25628;DHT22;40915;50.826;4.356;2024-03-08T09:32:22;6.70;99.90
25628;DHT22;40915;50.826;4.356;2024-03-08T09:34:48;6.90;99.90
25628;DHT22;40915;50.826;4.356;2024-03-08T09:37:14;7.00;99.90
25628;DHT22;40915;50.826;4.356;2024-03-08T09:39:39;7.00;99.90
25628;DHT22;40915;50.826;4.356;2024-03-08T09:42:05;7.00;99.90
25628;DHT22;40915;50.826;4.356;2024-03-08T09:44:31;7.10;99.90
25628;DHT22;40915;50.826;4.356;2024-03-08T09:46:58;7.20;99.90
25628;DHT22;40915;50.826;4.356;2024-03-08T09:49:24;7.20;99.90
25628;DHT22;40915;50.826;4.356;2024-03-08T09:51:50;7.20;99.90
25628;DHT22;40915;50.826;4.356;2024-03-08T09:54:17;7.30;99.90
25628;DHT22;40915;50.826;4.356;2024-03-08T09:56:43;7.40;99.90
25628;DHT22;40915;50.826;4.356;2024-03-08T09:59:10;7.50;99.90
25628;DHT22;40915;50.826;4.356;2024-03-08T10:01:54;7.50;99.90
25628;DHT22;40915;50.826;4.356;2024-03-08T10:04:24;7.60;99.90
25628;DHT22;40915;50.826;4.356;2024-03-08T10:06:50;7.60;99.90
25628;DHT22;40915;50.826;4.356;2024-03-08T10:09:15;7.70;99.90
25628;DHT22;40915;50.826;4.356;2024-03-08T10:11:42;7.70;99.90
25628;DHT22;40915;50.826;4.356;2024-03-08T10:14:09;7.70;99.90
25628;DHT22;40915;50.826;4.356;2024-03-08T10:16:34;7.70;99.90
25628;DHT22;40915;50.826;4.356;2024-03-08T10:19:00;7.70;99.90
25628;DHT22;40915;50.826;4.356;2024-03-08T10:21:26;7.80;99.90
25628;DHT22;40915;50.826;4.356;2024-03-08T10:23:52;7.90;99.90
25628;DHT22;40915;50.826;4.356;2024-03-08T10:26:19;8.00;99.90
25628;DHT22;40915;50.826;4.356;2024-03-08T10:28:50;8.10;99.90
25628;DHT22;40915;50.826;4.356;2024-03-08T10:31:17;8.20;99.90
25628;DHT22;40915;50.826;4.356;2024-03-08T10:33:44;8.20;99.90
25628;DHT22;40915;50.826;4.356;2024-03-08T10:36:11;8.30;99.90
25628;DHT22;40915;50.826;4.356;2024-03-08T10:38:39;8.20;99.90
25628;DHT22;40915;50.826;4.356;2024-03-08T10:41:10;8.30;99.90
25628;DHT22;40915;50.826;4.356;2024-03-08T10:47:01;8.20;99.90
25628;DHT22;40915;50.826;4.356;2024-03-08T10:49:41;8.40;99.90
25628;DHT22;40915;50.826;4.356;2024-03-08T10:52:11;8.40;99.90
25628;DHT22;40915;50.826;4.356;2024-03-08T10:54:39;8.40;99.90
25628;DHT22;40915;50.826;4.356;2024-03-08T10:57:06;8.50;99.90
25628;DHT22;40915;50.826;4.356;2024-03-08T10:59:34;8.60;99.90
25628;DHT22;40915;50.826;4.356;2024-03-08T11:02:00;8.70;99.90
25628;DHT22;40915;50.826;4.356;2024-03-08T11:04:26;8.70;99.90
25628;DHT22;40915;50.826;4.356;2024-03-08T11:07:01;8.80;99.90
25628;DHT22;40915;50.826;4.356;2024-03-08T11:09:35;8.80;99.90
25628;DHT22;40915;50.826;4.356;2024-03-08T11:12:26;9.00;99.90
25628;DHT22;40915;50.826;4.356;2024-03-08T11:14:56;9.10;99.90
25628;DHT22;40915;50.826;4.356;2024-03-08T11:17:39;9.20;99.90
25628;DHT22;40915;50.826;4.356;2024-03-08T11:20:17;9.20;99.90
25628;DHT22;40915;50.826;4.356;2024-03-08T11:22:59;9.30;99.90
25628;DHT22;40915;50.826;4.356;2024-03-08T11:25:42;9.30;99.90
25628;DHT22;40915;50.826;4.356;2024-03-08T11:28:18;9.30;99.90
25628;DHT22;40915;50.826;4.356;2024-03-08T11:33:36;9.40;99.90
25628;DHT22;40915;50.826;4.356;2024-03-08T11:36:12;9.50;99.90
25628;DHT22;40915;50.826;4.356;2024-03-08T11:38:45;9.60;99.90
25628;DHT22;40915;50.826;4.356;2024-03-08T11:41:14;9.50;99.90
25628;DHT22;40915;50.826;4.356;2024-03-08T11:43:40;9.60;99.90
25628;DHT22;40915;50.826;4.356;2024-03-08T11:46:14;9.70;99.90
25628;DHT22;40915;50.826;4.356;2024-03-08T11:48:44;9.80;99.90
25628;DHT22;40915;50.826;4.356;2024-03-08T11:51:14;9.90;99.90
25628;DHT22;40915;50.826;4.356;2024-03-08T11:53:41;9.90;99.90
25628;DHT22;40915;50.826;4.356;2024-03-08T11:56:11;10.00;99.90
25628;DHT22;40915;50.826;4.356;2024-03-08T11:58:37;10.00;99.90
25628;DHT22;40915;50.826;4.356;2024-03-08T12:01:08;10.00;99.90
25628;DHT22;40915;50.826;4.356;2024-03-08T12:03:40;10.20;99.90
25628;DHT22;40915;50.826;4.356;2024-03-08T12:06:10;10.20;99.90
25628;DHT22;40915;50.826;4.356;2024-03-08T12:08:36;10.30;99.90
25628;DHT22;40915;50.826;4.356;2024-03-08T12:11:05;10.30;99.90
25628;DHT22;40915;50.826;4.356;2024-03-08T12:13:34;10.30;99.90
25628;DHT22;40915;50.826;4.356;2024-03-08T12:16:09;10.30;99.90
25628;DHT22;40915;50.826;4.356;2024-03-08T12:18:38;10.40;99.90
25628;DHT22;40915;50.826;4.356;2024-03-08T12:21:07;10.50;99.90
25628;DHT22;40915;50.826;4.356;2024-03-08T12:23:34;10.60;99.90
25628;DHT22;40915;50.826;4.356;2024-03-08T12:26:16;10.60;99.90
25628;DHT22;40915;50.826;4.356;2024-03-08T12:28:43;10.70;99.90
25628;DHT22;40915;50.826;4.356;2024-03-08T12:31:14;10.90;99.90
25628;DHT22;40915;50.826;4.356;2024-03-08T12:33:53;10.90;99.90
25628;DHT22;40915;50.826;4.356;2024-03-08T12:36:20;10.90;99.90
25628;DHT22;40915;50.826;4.356;2024-03-08T12:38:49;11.00;99.90
25628;DHT22;40915;50.826;4.356;2024-03-08T12:41:16;11.00;99.90
25628;DHT22;40915;50.826;4.356;2024-03-08T12:43:45;11.10;99.90
25628;DHT22;40915;50.826;4.356;2024-03-08T12:46:19;11.20;99.90
25628;DHT22;40915;50.826;4.356;2024-03-08T12:48:46;11.20;99.90
25628;DHT22;40915;50.826;4.356;2024-03-08T12:51:21;11.20;99.90
25628;DHT22;40915;50.826;4.356;2024-03-08T12:53:46;11.20;99.90
25628;DHT22;40915;50.826;4.356;2024-03-08T12:56:35;11.20;99.90
25628;DHT22;40915;50.826;4.356;2024-03-08T12:59:07;11.20;99.90
25628;DHT22;40915;50.826;4.356;2024-03-08T13:01:36;11.20;99.90
25628;DHT22;40915;50.826;4.356;2024-03-08T13:04:05;11.30;99.90
25628;DHT22;40915;50.826;4.356;2024-03-08T13:06:32;11.30;99.90
25628;DHT22;40915;50.826;4.356;2024-03-08T13:08:58;11.30;99.90
25628;DHT22;40915;50.826;4.356;2024-03-08T13:11:26;11.40;99.90
25628;DHT22;40915;50.826;4.356;2024-03-08T13:13:55;11.40;99.90
25628;DHT22;40915;50.826;4.356;2024-03-08T13:16:21;11.50;99.90
25628;DHT22;40915;50.826;4.356;2024-03-08T13:18:47;11.60;99.90
25628;DHT22;40915;50.826;4.356;2024-03-08T13:21:15;11.60;99.90
25628;DHT22;40915;50.826;4.356;2024-03-08T13:23:45;11.70;99.90
25628;DHT22;40915;50.826;4.356;2024-03-08T13:26:12;11.80;99.90
25628;DHT22;40915;50.826;4.356;2024-03-08T13:28:42;11.80;99.90
25628;DHT22;40915;50.826;4.356;2024-03-08T13:31:08;11.90;99.90
25628;DHT22;40915;50.826;4.356;2024-03-08T13:33:36;11.80;99.90
25628;DHT22;40915;50.826;4.356;2024-03-08T13:36:11;11.90;99.90
25628;DHT22;40915;50.826;4.356;2024-03-08T13:38:47;11.90;99.90
25628;DHT22;40915;50.826;4.356;2024-03-08T13:41:14;11.90;99.90
25628;DHT22;40915;50.826;4.356;2024-03-08T13:43:42;11.90;99.90
25628;DHT22;40915;50.826;4.356;2024-03-08T13:46:08;11.90;99.90
25628;DHT22;40915;50.826;4.356;2024-03-08T13:48:36;12.00;99.90
25628;DHT22;40915;50.826;4.356;2024-03-08T13:51:06;12.00;99.90
25628;DHT22;40915;50.826;4.356;2024-03-08T13:53:32;12.00;99.90
25628;DHT22;40915;50.826;4.356;2024-03-08T13:56:01;12.10;99.90
25628;DHT22;40915;50.826;4.356;2024-03-08T13:58:27;12.10;99.90
25628;DHT22;40915;50.826;4.356;2024-03-08T14:00:53;12.20;99.90
25628;DHT22;40915;50.826;4.356;2024-03-08T14:03:19;12.20;99.90
25628;DHT22;40915;50.826;4.356;2024-03-08T14:05:46;12.20;99.90
25628;DHT22;40915;50.826;4.356;2024-03-08T14:08:12;12.20;99.90
25628;DHT22;40915;50.826;4.356;2024-03-08T14:10:38;12.20;99.90
25628;DHT22;40915;50.826;4.356;2024-03-08T14:13:04;12.20;99.90
25628;DHT22;40915;50.826;4.356;2024-03-08T14:15:32;12.30;99.90
25628;DHT22;40915;50.826;4.356;2024-03-08T14:17:57;12.30;99.90
25628;DHT22;40915;50.826;4.356;2024-03-08T14:20:24;12.20;99.90
25628;DHT22;40915;50.826;4.356;2024-03-08T14:22:56;12.30;99.90
25628;DHT22;40915;50.826;4.356;2024-03-08T14:25:22;12.30;99.90
25628;DHT22;40915;50.826;4.356;2024-03-08T14:27:50;12.30;99.90
25628;DHT22;40915;50.826;4.356;2024-03-08T14:30:19;12.30;99.90
25628;DHT22;40915;50.826;4.356;2024-03-08T14:33:07;12.30;99.90
25628;DHT22;40915;50.826;4.356;2024-03-08T14:35:38;12.40;99.90
25628;DHT22;40915;50.826;4.356;2024-03-08T14:38:04;12.50;99.90
25628;DHT22;40915;50.826;4.356;2024-03-08T14:40:30;12.60;99.90
25628;DHT22;40915;50.826;4.356;2024-03-08T14:42:56;12.90;99.90
25628;DHT22;40915;50.826;4.356;2024-03-08T14:45:22;12.20;99.90
25628;DHT22;40915;50.826;4.356;2024-03-08T14:47:50;12.90;99.90
25628;DHT22;40915;50.826;4.356;2024-03-08T14:50:19;13.00;99.90
25628;DHT22;40915;50.826;4.356;2024-03-08T14:52:46;12.90;99.90
25628;DHT22;40915;50.826;4.356;2024-03-08T14:55:16;12.80;99.90
25628;DHT22;40915;50.826;4.356;2024-03-08T14:57:42;12.90;99.90
25628;DHT22;40915;50.826;4.356;2024-03-08T15:00:12;12.90;99.90
25628;DHT22;40915;50.826;4.356;2024-03-08T15:02:45;12.90;99.90
25628;DHT22;40915;50.826;4.356;2024-03-08T15:05:11;12.90;99.90
25628;DHT22;40915;50.826;4.356;2024-03-08T15:07:40;12.90;99.90
25628;DHT22;40915;50.826;4.356;2024-03-08T15:10:09;12.80;99.90
25628;DHT22;40915;50.826;4.356;2024-03-08T15:12:40;12.90;99.90
25628;DHT22;40915;50.826;4.356;2024-03-08T15:15:12;13.20;99.90
25628;DHT22;40915;50.826;4.356;2024-03-08T15:17:45;13.10;99.90
25628;DHT22;40915;50.826;4.356;2024-03-08T15:20:13;13.20;99.90
25628;DHT22;40915;50.826;4.356;2024-03-08T15:22:46;13.30;99.90
25628;DHT22;40915;50.826;4.356;2024-03-08T15:25:15;13.30;99.90
25628;DHT22;40915;50.826;4.356;2024-03-08T15:27:55;13.20;99.90
25628;DHT22;40915;50.826;4.356;2024-03-08T15:30:21;13.10;99.90
25628;DHT22;40915;50.826;4.356;2024-03-08T15:32:55;13.00;99.90
25628;DHT22;40915;50.826;4.356;2024-03-08T15:35:28;13.00;99.90
25628;DHT22;40915;50.826;4.356;2024-03-08T15:37:54;12.90;99.90
25628;DHT22;40915;50.826;4.356;2024-03-08T15:40:26;12.80;99.90
25628;DHT22;40915;50.826;4.356;2024-03-08T15:45:20;12.70;99.90
25628;DHT22;40915;50.826;4.356;2024-03-08T15:47:57;12.70;99.90
25628;DHT22;40915;50.826;4.356;2024-03-08T15:50:23;12.70;99.90
25628;DHT22;40915;50.826;4.356;2024-03-08T15:52:58;12.60;99.90
25628;DHT22;40915;50.826;4.356;2024-03-08T15:55:24;12.60;99.90
25628;DHT22;40915;50.826;4.356;2024-03-08T15:57:52;12.60;99.90
25628;DHT22;40915;50.826;4.356;2024-03-08T16:00:21;12.60;99.90
25628;DHT22;40915;50.826;4.356;2024-03-08T16:03:01;12.60;99.90
25628;DHT22;40915;50.826;4.356;2024-03-08T16:05:39;12.60;99.90
25628;DHT22;40915;50.826;4.356;2024-03-08T16:08:16;12.60;99.90
25628;DHT22;40915;50.826;4.356;2024-03-08T16:10:44;12.60;99.90
25628;DHT22;40915;50.826;4.356;2024-03-08T16:13:21;12.50;99.90
25628;DHT22;40915;50.826;4.356;2024-03-08T16:15:49;12.50;99.90
25628;DHT22;40915;50.826;4.356;2024-03-08T16:18:15;12.40;99.90
25628;DHT22;40915;50.826;4.356;2024-03-08T16:20:41;12.30;99.90
25628;DHT22;40915;50.826;4.356;2024-03-08T16:23:13;12.30;99.90
25628;DHT22;40915;50.826;4.356;2024-03-08T16:25:43;12.20;99.90
25628;DHT22;40915;50.826;4.356;2024-03-08T16:28:25;12.20;99.90
25628;DHT22;40915;50.826;4.356;2024-03-08T16:31:09;12.20;99.90
25628;DHT22;40915;50.826;4.356;2024-03-08T16:33:38;12.20;99.90
25628;DHT22;40915;50.826;4.356;2024-03-08T16:36:30;12.20;99.90
25628;DHT22;40915;50.826;4.356;2024-03-08T16:39:17;12.10;99.90
25628;DHT22;40915;50.826;4.356;2024-03-08T16:41:45;12.10;99.90
25628;DHT22;40915;50.826;4.356;2024-03-08T16:44:13;12.00;99.90
25628;DHT22;40915;50.826;4.356;2024-03-08T16:46:44;12.00;99.90
25628;DHT22;40915;50.826;4.356;2024-03-08T16:49:10;11.90;99.90